• Join FlightAware (Why Join?)
  • Login
  • US Flag 
06:44AM EDT


 

Airport Tracker/Info


-or-


 

Live Flight TrackerFlight Track Log ✈ DCM6926 ✈ 29-Mar-2013 ✈ KPHL - KPBI

Flight Track Log - Related Links

Times and Time Zones

All times are in EDT time to prevent confusion due to time zone crossing. See the DCM6926 flight status page for this flight to view local times or setup timezone preferences in your user account.

Time Position Orientation Groundspeed Altitude Reporting Facility
EDT Latitude Longitude Course Direction KTS MPH feet Rate Location/Type
03:00PM 39.8580 -75.2790 235° Southwest 178 205 700  Level FlightAware
03:00PM 39.8500 -75.2900 227° Southwest 192 221 1,100 2,220 Climbing FlightAware
03:01PM 39.8310 -75.3080 216° Southwest 193 222 2,000 2,220 Climbing FlightAware
03:01PM 39.8160 -75.3230 218° Southwest 216 249 2,800 2,220 Climbing FlightAware
03:02PM 39.7960 -75.3390 212° Southwest 234 269 3,700 2,820 Climbing FlightAware
03:02PM 39.7660 -75.3650 214° Southwest 251 289 5,400 3,000 Climbing FlightAware
03:03PM 39.7370 -75.3910 215° Southwest 277 319 6,700 3,240 Climbing FlightAware
03:03PM 39.7060 -75.4040 198° South 286 329 8,400 3,660 Climbing FlightAware
03:03PM 39.6660 -75.3960 171° South 300 345 10,100 2,880 Climbing FlightAware
03:04PM 39.6040 -75.3920 177° South 330 380 11,800 1,620 Climbing FlightAware
03:05PM 39.5420 -75.3900 179° South 353 406 12,300 1,380 Climbing FlightAware
03:06PM 39.4720 -75.3880 179° South 366 421 13,800 2,040 Climbing FlightAware
03:06PM 39.3990 -75.3860 179° South 381 438 15,200 2,040 Climbing FlightAware
03:07PM 39.3180 -75.3830 178° South 387 445 16,700 1,200 Climbing FlightAware
03:08PM 39.2590 -75.3820 179° South 400 460 16,800 60 Climbing FlightAware
03:08PM 39.1580 -75.3880 183° South 397 457 16,800 600 Level FlightAware
03:09PM 39.0780 -75.4010 187° South 380 437 17,700 1,800 Climbing FlightAware
03:10PM 39.0080 -75.4110 186° South 382 440 19,400 2,460 Climbing FlightAware
03:10PM 38.9270 -75.4240 187° South 399 459 21,200 2,400 Climbing FlightAware
03:11PM 38.8570 -75.4340 186° South 407 468 22,800 2,520 Climbing FlightAware
03:12PM 38.7760 -75.4460 187° South 414 476 24,600 2,520 Climbing FlightAware
03:13PM 38.6920 -75.4590 187° South 418 481 26,400 2,280 Climbing FlightAware
03:13PM 38.6190 -75.4700 187° South 422 486 27,900 2,220 Climbing FlightAware
03:14PM 38.5440 -75.4810 187° South 429 494 29,200 2,040 Climbing FlightAware
03:15PM 38.4490 -75.4960 187° South 425 489 30,800 1,740 Climbing FlightAware
03:15PM 38.3750 -75.5080 187° South 429 494 32,000 840 Climbing FlightAware
03:16PM 38.2870 -75.5480 200° South 447 514 32,000  Level FlightAware
03:17PM 38.2090 -75.5960 206° Southwest 447 514 32,000 60 Level FlightAware
03:17PM 38.1270 -75.6470 206° Southwest 448 516 32,100 840 Climbing FlightAware
03:18PM 38.0560 -75.6910 206° Southwest 445 512 33,200 1,380 Climbing FlightAware
03:19PM 37.9810 -75.7380 206° Southwest 436 502 34,000 1,020 Climbing FlightAware
03:19PM 37.9050 -75.7850 206° Southwest 427 491 34,600 600 Climbing FlightAware
03:20PM 37.8360 -75.8270 206° Southwest 417 480 34,900 180 Climbing FlightAware
03:21PM 37.7770 -75.8640 206° Southwest 417 480 34,900  Level FlightAware
03:22PM 37.7180 -75.9000 206° Southwest 417 480 34,900  Level FlightAware
03:22PM 37.6450 -75.9460 207° Southwest 417 480 34,900 1,260 Level FlightAware
03:24PM 37.4450 -76.0690 206° Southwest 425 489 38,000 1,320 Climbing FlightAware
03:25PM 37.3630 -76.1180 205° Southwest 424 488 38,000  Level FlightAware
03:25PM 37.2850 -76.1660 206° Southwest 423 487 38,000  Level FlightAware
03:26PM 37.2060 -76.2140 206° Southwest 423 487 38,000  Level FlightAware
03:27PM 37.1410 -76.2530 206° Southwest 424 488 38,000  Level FlightAware
03:27PM 37.0810 -76.2900 206° Southwest 423 487 38,000  Level FlightAware
03:28PM 36.9870 -76.3460 205° Southwest 416 479 38,000  Level FlightAware
03:29PM 36.9110 -76.3920 206° Southwest 411 473 38,000 600 Level FlightAware
03:29PM 36.8600 -76.4230 206° Southwest 403 464 38,700 1,500 Climbing FlightAware
03:30PM 36.8160 -76.4490 205° Southwest 391 450 39,500 960 Climbing FlightAware
03:31PM 36.7310 -76.4980 205° Southwest 401 461 40,000 240 Climbing FlightAware
03:32PM 36.6390 -76.5400 200° South 414 476 40,000  Level FlightAware
03:32PM 36.5780 -76.5670 200° South 414 476 40,000  Level FlightAware
03:33PM 36.5170 -76.5950 200° South 414 476 40,000  Level FlightAware
03:34PM 36.6550 -76.5330 20° North 447 514 40,000  Level FlightAware
03:35PM 36.3010 -76.6930 200° South 443 510 40,000  Level FlightAware
03:35PM 36.2360 -76.7240 201° Southwest 443 510 40,000  Level FlightAware
03:36PM 36.1700 -76.7550 201° Southwest 443 510 40,000  Level FlightAware
03:37PM 36.0890 -76.7940 201° Southwest 443 510 40,000  Level FlightAware
03:37PM 36.0240 -76.8250 201° Southwest 443 510 40,000  Level FlightAware
03:38PM 35.9590 -76.8560 201° Southwest 443 510 40,000  Level FlightAware
03:39PM 35.8940 -76.8860 201° Southwest 443 510 40,000  Level FlightAware
03:39PM 35.8290 -76.9170 201° Southwest 443 510 40,000  Level FlightAware
03:40PM 35.7480 -76.9560 201° Southwest 443 510 40,000  Level FlightAware
03:41PM 35.6830 -76.9860 201° Southwest 443 510 40,000  Level FlightAware
03:42PM 35.4760 -77.0440 193° South 434 499 40,000  Level FlightAware
03:42PM 35.4120 -77.0670 196° South 434 499 40,000  Level FlightAware
03:43PM 35.3300 -77.0960 196° South 434 499 40,000  Level FlightAware
03:44PM 35.2640 -77.1190 196° South 434 499 40,000  Level FlightAware
03:45PM 35.1990 -77.1420 196° South 434 499 40,000  Level FlightAware
03:45PM 35.1330 -77.1650 196° South 434 499 40,000  Level FlightAware
03:46PM 35.0510 -77.1940 196° South 434 499 40,000  Level FlightAware
03:47PM 34.9860 -77.2170 196° South 434 499 40,000  Level FlightAware
03:47PM 34.9200 -77.2400 196° South 434 499 40,000  Level FlightAware
03:48PM 34.8540 -77.2620 195° South 434 499 40,000  Level FlightAware
03:49PM 34.7890 -77.2850 196° South 434 499 40,000  Level FlightAware
03:50PM 34.7070 -77.3140 196° South 434 499 40,000  Level FlightAware
03:50PM 34.6410 -77.3370 196° South 434 499 40,000  Level FlightAware
03:51PM 34.5750 -77.3600 196° South 434 499 40,000  Level FlightAware
03:52PM 34.5100 -77.3830 196° South 434 499 40,000  Level FlightAware
03:52PM 34.2761 -77.4719 196° South 444 511 40,000  Level Washington Center
03:55PM 33.9810 -77.5740 197° South 442 509 40,000  Level FlightAware
03:56PM 33.8990 -77.6030 196° South 442 509 40,000  Level FlightAware
03:57PM 33.7490 -77.6560 196° South 439 505 40,000  Level FlightAware
03:57PM 33.6660 -77.6840 196° South 438 504 40,000  Level FlightAware
03:58PM 33.5850 -77.7120 196° South 438 504 40,000  Level FlightAware
03:59PM 33.5190 -77.7340 196° South 438 504 40,000  Level FlightAware
04:00PM 33.4360 -77.7630 196° South 438 504 40,000  Level FlightAware
04:00PM 33.3700 -77.7860 196° South 438 504 40,000  Level FlightAware
04:01PM 33.3040 -77.8080 196° South 438 504 40,000  Level FlightAware
04:02PM 33.2380 -77.8310 196° South 438 504 40,000  Level FlightAware
04:02PM 33.1710 -77.8540 196° South 438 504 40,000  Level FlightAware
04:03PM 33.0890 -77.8820 196° South 438 504 40,000  Level FlightAware
04:04PM 33.0220 -77.9050 196° South 438 504 40,000  Level FlightAware
04:04PM 32.9560 -77.9270 196° South 438 504 40,000  Level FlightAware
04:05PM 32.8900 -77.9500 196° South 438 504 40,000  Level FlightAware
04:06PM 32.8240 -77.9730 196° South 438 504 40,000  Level FlightAware
04:07PM 33.6660 -77.6840 16° North 40,000  Level FlightAware
04:07PM 32.5461 -78.0625 195° South 426 490 40,000  Level Jacksonville Center
04:08PM 32.4308 -78.1031 195° South 431 496 40,000  Level Jacksonville Center
04:09PM 32.2650 -78.1600 196° South 421 484 40,000  Level FlightAware
04:10PM 32.1860 -78.1850 195° South 421 484 40,000  Level FlightAware
04:11PM 32.1220 -78.2060 196° South 421 484 40,000  Level FlightAware
04:12PM 32.0420 -78.2310 195° South 421 484 40,000  Level FlightAware
04:12PM 31.9780 -78.2510 195° South 421 484 40,000  Level FlightAware
04:13PM 31.9140 -78.2710 195° South 421 484 40,000  Level FlightAware
04:14PM 31.8500 -78.2910 195° South 421 484 40,000  Level FlightAware
04:14PM 31.7870 -78.3120 196° South 421 484 40,000  Level FlightAware
04:15PM 31.7070 -78.3370 195° South 421 484 40,000  Level FlightAware
04:16PM 31.6430 -78.3570 195° South 421 484 40,000  Level FlightAware
04:17PM 31.5790 -78.3770 195° South 421 484 40,000  Level FlightAware
04:17PM 31.5150 -78.3970 195° South 421 484 40,000  Level FlightAware
04:18PM 31.4510 -78.4170 195° South 421 484 40,000  Level FlightAware
04:19PM 31.3710 -78.4420 195° South 421 484 40,000  Level FlightAware
04:19PM 31.3070 -78.4620 195° South 421 484 40,000  Level FlightAware
04:20PM 31.0922 -78.5503 195° South 416 479 40,000  Level Jacksonville Center
04:22PM 30.9031 -78.6122 196° South 423 487 40,000  Level Miami Center
04:23PM 30.7922 -78.6489 196° South 417 480 40,000  Level Miami Center
04:24PM 30.6833 -78.6833 195° South 417 480 40,000  Level Miami Center
04:25PM 30.5747 -78.7200 196° South 417 480 40,000  Level Miami Center
04:26PM 30.4636 -78.7589 197° South 411 473 40,000  Level Miami Center
04:27PM 30.3525 -78.7978 197° South 416 479 40,000  Level Miami Center
04:28PM 30.2500 -78.8367 198° South 411 473 40,000  Level Miami Center
04:29PM 30.1389 -78.8753 197° South 417 480 40,000 -60 Level Miami Center
04:30PM 30.0342 -78.9117 197° South 405 466 39,900 -600 Descending Miami Center
04:31PM 29.9292 -78.9553 200° South 405 466 38,800 -1,200 Descending Miami Center
04:32PM 29.8225 -78.9914 196° South 405 466 37,600 -1,200 Descending Miami Center
04:33PM 29.7053 -79.0178 191° South 410 472 36,400 -1,020 Descending Miami Center
04:34PM 29.5881 -79.0394 189° South 422 486 35,600 -840 Descending Miami Center
04:35PM 29.4669 -79.0536 186° South 429 494 34,800 -960 Descending Miami Center
04:36PM 29.3478 -79.0797 191° South 435 501 33,700 -1,020 Descending Miami Center
04:37PM 29.2242 -79.1033 189° South 447 514 32,800 -1,020 Descending Miami Center
04:38PM 29.1008 -79.1247 189° South 452 520 31,700 -1,020 Descending Miami Center
04:39PM 28.9772 -79.1483 189° South 452 520 30,800 -960 Descending Miami Center
04:40PM 28.8497 -79.1717 189° South 452 520 29,800 -1,080 Descending Miami Center
04:41PM 28.7219 -79.1950 189° South 465 535 28,700 -1,080 Descending Miami Center
04:42PM 28.5903 -79.2158 206° Southwest 471 542 27,700 -960 Descending Miami Center
04:43PM 28.4603 -79.2392 209° Southwest 471 542 26,800 -960 Descending Miami Center
04:44PM 28.2940 -79.2680 189° South 469 540 25,500 -1,020 Descending FlightAware
04:45PM 28.2040 -79.2850 189° South 471 542 24,800 -1,020 Descending FlightAware
04:45PM 28.1100 -79.3020 189° South 474 545 24,100 -600 Descending FlightAware
04:46PM 28.0230 -79.3220 191° South 476 548 24,000 -1,140 Descending FlightAware
04:47PM 27.9620 -79.3550 206° Southwest 464 534 22,800 -2,280 Descending FlightAware
04:47PM 27.8930 -79.3990 209° Southwest 458 527 21,400 -2,100 Descending FlightAware
04:48PM 27.7910 -79.4640 209° Southwest 441 507 19,500 -2,040 Descending FlightAware
04:49PM 27.7070 -79.5170 209° Southwest 430 495 18,000 -2,160 Descending FlightAware
04:50PM 27.6360 -79.5620 209° Southwest 425 489 16,500 -2,160 Descending FlightAware
04:50PM 27.5640 -79.6080 210° Southwest 411 473 15,000 -2,100 Descending FlightAware
04:51PM 27.4950 -79.6520 209° Southwest 408 470 13,600 -2,100 Descending FlightAware
04:52PM 27.4260 -79.6950 209° Southwest 403 464 12,200 -1,860 Descending FlightAware
04:52PM 27.3630 -79.7350 209° Southwest 393 452 11,000 -1,740 Descending FlightAware
04:53PM 27.2990 -79.7760 210° Southwest 350 403 9,800 -1,980 Descending FlightAware
04:53PM 27.2750 -79.7910 209° Southwest 347 399 9,200 -2,160 Descending FlightAware
04:54PM 27.2320 -79.8180 209° Southwest 335 386 8,200 -1,800 Descending FlightAware
04:54PM 27.2060 -79.8340 209° Southwest 312 359 7,700 -480 Descending FlightAware
04:55PM 27.1510 -79.8690 210° Southwest 278 320 7,700  Level FlightAware
04:55PM 27.1190 -79.8880 208° Southwest 272 313 7,700  Level FlightAware
04:56PM 27.0860 -79.9060 206° Southwest 274 315 7,700  Level FlightAware
04:56PM 27.0520 -79.9260 208° Southwest 274 315 7,700  Level FlightAware
04:57PM 27.0220 -79.9430 207° Southwest 274 315 7,700  Level FlightAware
04:57PM 26.9920 -79.9600 207° Southwest 276 318 7,700  Level FlightAware
04:58PM 26.9550 -79.9810 207° Southwest 283 326 7,700 -780 Level FlightAware
04:58PM 26.9290 -80.0030 217° Southwest 284 327 7,000 -1,920 Descending FlightAware
04:58PM 26.9070 -80.0220 218° Southwest 285 328 6,300 -1,800 Descending FlightAware
04:59PM 26.8740 -80.0500 217° Southwest 269 310 5,500 -1,560 Descending FlightAware
05:00PM 26.8390 -80.0800 217° Southwest 253 291 4,500 -1,440 Descending FlightAware
05:00PM 26.8240 -80.0930 218° Southwest 250 288 4,200 -1,080 Descending FlightAware
05:00PM 26.8060 -80.1250 238° Southwest 220 253 3,700 -600 Descending FlightAware
05:01PM 26.8040 -80.1520 265° West 196 226 3,700  Level FlightAware
05:01PM 26.8020 -80.1790 265° West 194 223 3,700  Level FlightAware
05:02PM 26.8000 -80.2050 265° West 186 214 3,700  Level FlightAware
05:02PM 26.7990 -80.2190 265° West 186 214 3,700  Level FlightAware
05:02PM 26.7960 -80.2500 264° West 190 219 3,700  Level FlightAware
05:03PM 26.7940 -80.2760 265° West 190 219 3,700  Level FlightAware
05:03PM 26.7940 -80.2850 270° West 191 220 3,700  Level FlightAware
05:04PM 26.7920 -80.3160 266° West 195 224 3,700  Level FlightAware
05:04PM 26.7900 -80.3430 265° West 196 226 3,700  Level FlightAware
05:05PM 26.7870 -80.3740 264° West 189 217 3,700 -600 Level FlightAware
05:06PM 26.7370 -80.3940 200° South 208 239 2,700 -900 Descending FlightAware
05:06PM 26.7060 -80.3780 155° Southeast 192 221 2,100 -960 Descending FlightAware
05:06PM 26.7040 -80.3760 138° Southeast 174 200 2,000 -480 Descending FlightAware
05:07PM 26.6920 -80.3430 112° Southeast 173 199 1,800 -300 Descending FlightAware
05:08PM 26.6910 -80.3190 93° East 167 192 1,700 -120 Descending FlightAware
05:08PM 26.6910 -80.2930 90° East 163 188 1,700  Level FlightAware
05:08PM 26.6910 -80.2840 90° East 165 190 1,700  Level FlightAware
05:09PM 26.6890 -80.2570 95° East 168 193 1,700 -120 Level FlightAware
05:10PM 26.6880 -80.2120 91° East 176 203 1,600 -480 Descending FlightAware
05:10PM 26.6860 -80.1830 94° East 164 189 1,100 -840 Descending FlightAware
05:10PM 26.6860 -80.1670 90° East 162 186 900 -300 Descending FlightAware
05:11PM 26.6860 -80.1480 90° East 162 186 900  Level FlightAware
05:14PM 26.6832 -80.0956 110° East  Level Estimated
05:15PM 26.6832 -80.0956 110° East  Level Estimated
05:16PM 26.6832 -80.0956 110° East  Level Estimated
05:17PM 26.6832 -80.0956 110° East  Level Estimated
05:18PM 26.6832 -80.0956 110° East  Level Estimated
05:19PM 26.6832 -80.0956 110° East  Level Estimated
05:20PM 26.6832 -80.0956 110° East  Level Estimated